createdAt,value
2023-03-06T00:00:00.387Z,65
2023-03-06T00:15:00.479Z,65
2023-03-06T00:30:00.414Z,65
2023-03-06T00:45:00.424Z,65
2023-03-06T01:00:00.403Z,65
2023-03-06T01:15:00.463Z,65
2023-03-06T01:30:00.410Z,66
2023-03-06T01:45:00.428Z,66
2023-03-06T02:00:00.425Z,66
2023-03-06T02:15:00.443Z,66
2023-03-06T02:30:00.400Z,66
2023-03-06T02:45:00.414Z,67
2023-03-06T03:00:00.403Z,67
2023-03-06T03:15:00.451Z,67
2023-03-06T03:30:00.437Z,67
2023-03-06T03:45:00.404Z,68
2023-03-06T04:00:00.412Z,68
2023-03-06T04:15:00.473Z,68
2023-03-06T04:30:00.449Z,68
2023-03-06T04:45:00.432Z,68
2023-03-06T05:00:00.399Z,68
2023-03-06T05:15:00.447Z,68
2023-03-06T05:30:00.383Z,68
2023-03-06T05:45:00.414Z,68
2023-03-06T06:00:00.404Z,68
2023-03-06T06:15:00.474Z,69
2023-03-06T06:30:00.421Z,69
2023-03-06T06:45:00.547Z,69
2023-03-06T07:00:00.376Z,69
2023-03-06T07:15:00.455Z,68
2023-03-06T07:30:00.403Z,69
2023-03-06T07:45:00.414Z,68
2023-03-06T08:00:00.524Z,68
2023-03-06T08:15:00.497Z,67
2023-03-06T08:30:00.372Z,67
2023-03-06T08:45:00.412Z,66
2023-03-06T09:00:00.457Z,66
2023-03-06T09:15:00.403Z,64
2023-03-06T09:30:00.445Z,64
2023-03-06T09:45:00.369Z,64
2023-03-06T10:00:04.557Z,64
2023-03-06T10:15:00.414Z,63
2023-03-06T10:30:04.326Z,63
2023-03-06T10:45:00.405Z,63
2023-03-06T11:00:00.440Z,62
2023-03-06T11:15:00.402Z,61
2023-03-06T11:30:00.427Z,62
2023-03-06T11:45:03.111Z,62
2023-03-06T12:00:00.496Z,61
2023-03-06T12:15:00.804Z,61
2023-03-06T12:30:00.487Z,61
2023-03-06T12:45:00.569Z,60
2023-03-06T13:00:00.429Z,61
2023-03-06T13:15:00.529Z,60
2023-03-06T13:30:00.477Z,60
2023-03-06T13:45:00.425Z,60
2023-03-06T14:00:09.879Z,60
2023-03-06T14:15:00.402Z,60
2023-03-06T14:30:00.435Z,60
2023-03-06T14:45:00.404Z,60
2023-03-06T15:00:00.423Z,60
2023-03-06T15:15:00.392Z,60
2023-03-06T15:30:00.514Z,61
2023-03-06T15:45:00.399Z,61
2023-03-06T16:00:00.458Z,61
2023-03-06T16:15:00.386Z,61
2023-03-06T16:30:00.465Z,61
2023-03-06T16:45:00.418Z,61
2023-03-06T17:00:00.441Z,61
2023-03-06T17:15:00.419Z,62
2023-03-06T17:30:00.795Z,62
2023-03-06T17:45:00.478Z,63
2023-03-06T18:00:00.457Z,63
2023-03-06T18:15:00.387Z,64
2023-03-06T18:30:00.472Z,64
2023-03-06T18:45:01.467Z,65
2023-03-06T19:00:00.416Z,66
2023-03-06T19:15:00.417Z,66
2023-03-06T19:30:00.466Z,67
2023-03-06T19:45:00.495Z,67
2023-03-06T20:00:00.441Z,68
2023-03-06T20:15:00.457Z,68
2023-03-06T20:30:00.492Z,69
2023-03-06T20:45:00.460Z,69
2023-03-06T21:00:00.439Z,69
2023-03-06T21:15:00.434Z,69
2023-03-06T21:30:00.498Z,70
2023-03-06T21:45:00.441Z,70
2023-03-06T22:00:00.406Z,70
2023-03-06T22:15:00.404Z,72
2023-03-06T22:30:00.451Z,71
2023-03-06T22:45:00.414Z,72
2023-03-06T23:00:00.462Z,71
2023-03-06T23:15:00.559Z,72
2023-03-06T23:30:00.435Z,72
2023-03-06T23:45:00.399Z,72
